N129NB KSLC-KOGD
Flight info
| Callsign | N129NB |
|---|---|
| Flight time | 0h 18m |
| Altitude | VFR/050 |
| Route | /FFN/ |
| Aircraft | AS50/L-DOV/C |
Departure
| Time | 2026-04-16 23:57 |
|---|---|
| Airport | Salt Lake City International Airport (KSLC) |
Arrival
| Time | 2026-04-17 00:15 |
|---|---|
| Airport | Ogden Hinckley Airport (KOGD) |
| Time | Latitude | Longitude | Altitude | Speed | Heading |
|---|---|---|---|---|---|
| 2026-04-16 23:52 | 40.78304 | -111.95885 | 4218 ft | 0 kts | 272° |
| 2026-04-16 23:54 | 40.78305 | -111.95885 | 4218 ft | 0 kts | 272° |
| 2026-04-16 23:55 | 40.78304 | -111.95885 | 4218 ft | 0 kts | 272° |
| 2026-04-16 23:55 | 40.78303 | -111.95888 | 4220 ft | 0 kts | 280° |
| 2026-04-16 23:55 | 40.78304 | -111.95893 | 4220 ft | 3 kts | 320° |
| 2026-04-16 23:56 | 40.78410 | -111.95961 | 4250 ft | 39 kts | 0° |
| 2026-04-16 23:56 | 40.78817 | -111.95969 | 4359 ft | 73 kts | 9° |
| 2026-04-16 23:56 | 40.79244 | -111.95688 | 4560 ft | 76 kts | 71° |
| 2026-04-16 23:56 | 40.79384 | -111.94990 | 4744 ft | 79 kts | 81° |
| 2026-04-16 23:57 | 40.79604 | -111.94321 | 4914 ft | 82 kts | 66° |
| 2026-04-16 23:57 | 40.79905 | -111.93639 | 5021 ft | 91 kts | 68° |
| 2026-04-16 23:57 | 40.80239 | -111.92896 | 5114 ft | 96 kts | 59° |
| 2026-04-16 23:57 | 40.80733 | -111.92275 | 5207 ft | 97 kts | 41° |
| 2026-04-16 23:58 | 40.81342 | -111.91837 | 5240 ft | 101 kts | 24° |
| 2026-04-16 23:58 | 40.82042 | -111.91557 | 5188 ft | 108 kts | 15° |
| 2026-04-16 23:58 | 40.82783 | -111.91331 | 5125 ft | 111 kts | 15° |
| 2026-04-16 23:58 | 40.83548 | -111.91107 | 5108 ft | 110 kts | 19° |
| 2026-04-16 23:59 | 40.84265 | -111.90815 | 5137 ft | 106 kts | 21° |
| 2026-04-16 23:59 | 40.84956 | -111.90532 | 5146 ft | 101 kts | 22° |
| 2026-04-16 23:59 | 40.85651 | -111.90279 | 5029 ft | 104 kts | 21° |
| 2026-04-16 23:59 | 40.86309 | -111.89847 | 4922 ft | 106 kts | 39° |
| 2026-04-17 00:00 | 40.86979 | -111.89441 | 4835 ft | 111 kts | 18° |
| 2026-04-17 00:00 | 40.87705 | -111.89258 | 4878 ft | 107 kts | 11° |
| 2026-04-17 00:00 | 40.88463 | -111.89179 | 4825 ft | 110 kts | 3° |
| 2026-04-17 00:00 | 40.89210 | -111.89244 | 4862 ft | 105 kts | 358° |
| 2026-04-17 00:01 | 40.89942 | -111.89373 | 4817 ft | 111 kts | 355° |
| 2026-04-17 00:01 | 40.90736 | -111.89436 | 4667 ft | 120 kts | 4° |
| 2026-04-17 00:01 | 40.91581 | -111.89472 | 4553 ft | 125 kts | 4° |
| 2026-04-17 00:01 | 40.92448 | -111.89478 | 4514 ft | 122 kts | 2° |
| 2026-04-17 00:02 | 40.93255 | -111.89507 | 4667 ft | 108 kts | 4° |
| 2026-04-17 00:02 | 40.93944 | -111.89558 | 4890 ft | 96 kts | 360° |
| 2026-04-17 00:02 | 40.94626 | -111.89644 | 4985 ft | 99 kts | 356° |
| 2026-04-17 00:02 | 40.95282 | -111.89918 | 5088 ft | 100 kts | 341° |
| 2026-04-17 00:03 | 40.95927 | -111.90347 | 5091 ft | 107 kts | 335° |
| 2026-04-17 00:03 | 40.96528 | -111.90914 | 5163 ft | 107 kts | 324° |
| 2026-04-17 00:03 | 40.97023 | -111.91671 | 5153 ft | 114 kts | 312° |
| 2026-04-17 00:03 | 40.97449 | -111.92585 | 5107 ft | 120 kts | 303° |
| 2026-04-17 00:04 | 40.97826 | -111.93591 | 5109 ft | 116 kts | 303° |
| 2026-04-17 00:04 | 40.98165 | -111.94535 | 5228 ft | 115 kts | 301° |
| 2026-04-17 00:04 | 40.98482 | -111.95521 | 5275 ft | 117 kts | 296° |
| 2026-04-17 00:04 | 40.98787 | -111.96526 | 5363 ft | 115 kts | 299° |
| 2026-04-17 00:05 | 40.99129 | -111.97481 | 5438 ft | 115 kts | 301° |
| 2026-04-17 00:05 | 40.99448 | -111.98447 | 5525 ft | 115 kts | 296° |
| 2026-04-17 00:05 | 40.99725 | -111.99468 | 5547 ft | 119 kts | 294° |
| 2026-04-17 00:05 | 40.99994 | -112.00516 | 5567 ft | 120 kts | 294° |
| 2026-04-17 00:06 | 41.00267 | -112.01572 | 5606 ft | 119 kts | 294° |
| 2026-04-17 00:06 | 41.00534 | -112.02601 | 5660 ft | 117 kts | 294° |
| 2026-04-17 00:06 | 41.00775 | -112.03622 | 5695 ft | 118 kts | 292° |
| 2026-04-17 00:06 | 41.01010 | -112.04644 | 5685 ft | 113 kts | 295° |
| 2026-04-17 00:07 | 41.01331 | -112.05580 | 5610 ft | 112 kts | 304° |
| 2026-04-17 00:07 | 41.01782 | -112.06390 | 5589 ft | 107 kts | 317° |
| 2026-04-17 00:07 | 41.02294 | -112.07088 | 5571 ft | 105 kts | 319° |
| 2026-04-17 00:07 | 41.02790 | -112.07775 | 5601 ft | 100 kts | 317° |
| 2026-04-17 00:08 | 41.03253 | -112.08432 | 5695 ft | 97 kts | 319° |
| 2026-04-17 00:08 | 41.03744 | -112.09054 | 5801 ft | 95 kts | 323° |
| 2026-04-17 00:08 | 41.04231 | -112.09621 | 5919 ft | 93 kts | 323° |
| 2026-04-17 00:08 | 41.04720 | -112.10179 | 5984 ft | 92 kts | 325° |
| 2026-04-17 00:09 | 41.05238 | -112.10706 | 6007 ft | 94 kts | 328° |
| 2026-04-17 00:09 | 41.05766 | -112.11206 | 6039 ft | 94 kts | 330° |
| 2026-04-17 00:09 | 41.06375 | -112.11584 | 6019 ft | 97 kts | 343° |
| 2026-04-17 00:09 | 41.07017 | -112.11893 | 5998 ft | 98 kts | 345° |
| 2026-04-17 00:10 | 41.07673 | -112.12157 | 5974 ft | 99 kts | 348° |
| 2026-04-17 00:10 | 41.08347 | -112.12385 | 5961 ft | 98 kts | 350° |
| 2026-04-17 00:10 | 41.08988 | -112.12566 | 6017 ft | 94 kts | 351° |
| 2026-04-17 00:10 | 41.09674 | -112.12717 | 5883 ft | 106 kts | 354° |
| 2026-04-17 00:11 | 41.10388 | -112.12830 | 5958 ft | 100 kts | 1° |
| 2026-04-17 00:11 | 41.11004 | -112.12510 | 6006 ft | 98 kts | 45° |
| 2026-04-17 00:11 | 41.11437 | -112.11810 | 5980 ft | 98 kts | 56° |
| 2026-04-17 00:11 | 41.11887 | -112.11104 | 5973 ft | 99 kts | 46° |
| 2026-04-17 00:12 | 41.12377 | -112.10462 | 5980 ft | 99 kts | 44° |
| 2026-04-17 00:12 | 41.12871 | -112.09824 | 5981 ft | 99 kts | 44° |
| 2026-04-17 00:12 | 41.13368 | -112.09177 | 5959 ft | 103 kts | 44° |
| 2026-04-17 00:12 | 41.13893 | -112.08491 | 5828 ft | 104 kts | 43° |
| 2026-04-17 00:13 | 41.14398 | -112.07834 | 5706 ft | 101 kts | 43° |
| 2026-04-17 00:13 | 41.14892 | -112.07191 | 5582 ft | 99 kts | 43° |
| 2026-04-17 00:13 | 41.15388 | -112.06543 | 5452 ft | 99 kts | 44° |
| 2026-04-17 00:13 | 41.15874 | -112.05907 | 5320 ft | 99 kts | 44° |
| 2026-04-17 00:14 | 41.16358 | -112.05273 | 5184 ft | 96 kts | 44° |
| 2026-04-17 00:14 | 41.16822 | -112.04665 | 5057 ft | 90 kts | 44° |
| 2026-04-17 00:14 | 41.17260 | -112.04097 | 4942 ft | 87 kts | 44° |
| 2026-04-17 00:14 | 41.17681 | -112.03542 | 4837 ft | 83 kts | 44° |
| 2026-04-17 00:15 | 41.18089 | -112.02994 | 4728 ft | 80 kts | 45° |
| 2026-04-17 00:15 | 41.18452 | -112.02535 | 4710 ft | 58 kts | 44° |
| 2026-04-17 00:15 | 41.18654 | -112.02261 | 4602 ft | 24 kts | 40° |
| 2026-04-17 00:15 | 41.18746 | -112.02151 | 4518 ft | 15 kts | 41° |
| 2026-04-17 00:16 | 41.18805 | -112.02073 | 4478 ft | 7 kts | 46° |
| 2026-04-17 00:16 | 41.18821 | -112.02046 | 4476 ft | 4 kts | 47° |
| 2026-04-17 00:16 | 41.18864 | -112.01990 | 4493 ft | 21 kts | 49° |
| 2026-04-17 00:16 | 41.19073 | -112.01706 | 4524 ft | 57 kts | 52° |
| 2026-04-17 00:17 | 41.19366 | -112.01321 | 4517 ft | 59 kts | 50° |
| 2026-04-17 00:17 | 41.19502 | -112.00949 | 4492 ft | 36 kts | 72° |
| 2026-04-17 00:17 | 41.19536 | -112.00760 | 4448 ft | 4 kts | 45° |
| 2026-04-17 00:17 | 41.19541 | -112.00732 | 4436 ft | 0 kts | 43° |
| 2026-04-17 00:18 | 41.19541 | -112.00731 | 4433 ft | 0 kts | 43° |